地図

経路データ

SID SEASON NUMBER BASIN SUBBASIN NAME ISO_TIME NATURE LAT LON WMO_WIND WMO_PRES WMO_AGENCY TRACK_TYPE DIST2LAND LANDFALL IFLAG USA_AGENCY USA_ATCF_ID USA_LAT USA_LON USA_RECORD USA_STATUS USA_WIND USA_PRES USA_SSHS USA_R34_NE USA_R34_SE USA_R34_SW USA_R34_NW USA_R50_NE USA_R50_SE USA_R50_SW USA_R50_NW USA_R64_NE USA_R64_SE USA_R64_SW USA_R64_NW USA_POCI USA_ROCI USA_RMW USA_EYE TOKYO_LAT TOKYO_LON TOKYO_GRADE TOKYO_WIND TOKYO_PRES TOKYO_R50_DIR TOKYO_R50_LONG TOKYO_R50_SHORT TOKYO_R30_DIR TOKYO_R30_LONG TOKYO_R30_SHORT TOKYO_LAND CMA_LAT CMA_LON CMA_CAT CMA_WIND CMA_PRES HKO_LAT HKO_LON HKO_CAT HKO_WIND HKO_PRES NEWDELHI_LAT NEWDELHI_LON NEWDELHI_GRADE NEWDELHI_WIND NEWDELHI_PRES NEWDELHI_CI NEWDELHI_DP NEWDELHI_POCI REUNION_LAT REUNION_LON REUNION_TYPE REUNION_WIND REUNION_PRES REUNION_TNUM REUNION_CI REUNION_RMW REUNION_R34_NE REUNION_R34_SE REUNION_R34_SW REUNION_R34_NW REUNION_R50_NE REUNION_R50_SE REUNION_R50_SW REUNION_R50_NW REUNION_R64_NE REUNION_R64_SE REUNION_R64_SW REUNION_R64_NW BOM_LAT BOM_LON BOM_TYPE BOM_WIND BOM_PRES BOM_TNUM BOM_CI BOM_RMW BOM_R34_NE BOM_R34_SE BOM_R34_SW BOM_R34_NW BOM_R50_NE BOM_R50_SE BOM_R50_SW BOM_R50_NW BOM_R64_NE BOM_R64_SE BOM_R64_SW BOM_R64_NW BOM_ROCI BOM_POCI BOM_EYE BOM_POS_METHOD BOM_PRES_METHOD NADI_LAT NADI_LON NADI_CAT NADI_WIND NADI_PRES WELLINGTON_LAT WELLINGTON_LON WELLINGTON_WIND WELLINGTON_PRES DS824_LAT DS824_LON DS824_STAGE DS824_WIND DS824_PRES TD9636_LAT TD9636_LON TD9636_STAGE TD9636_WIND TD9636_PRES TD9635_LAT TD9635_LON TD9635_WIND TD9635_PRES TD9635_ROCI NEUMANN_LAT NEUMANN_LON NEUMANN_CLASS NEUMANN_WIND NEUMANN_PRES MLC_LAT MLC_LON MLC_CLASS MLC_WIND MLC_PRES USA_GUST BOM_GUST BOM_GUST_PER REUNION_GUST REUNION_GUST_PER USA_SEAHGT USA_SEARAD_NE USA_SEARAD_SE USA_SEARAD_SW USA_SEARAD_NW STORM_SPEED STORM_DIR
1903298N16125 1903 57 WP MM NOT_NAMED 1903-10-24 16:00:00 NR 15.7000 124.600 main 193 191 __________O___ -1 15.7000 124.600 7 5 302
1903298N16125 1903 57 WP MM NOT_NAMED 1903-10-24 18:00:00 NR 15.7924 124.447 main 201 201 __________P___ -1 15.7924 124.447 7 5 302
1903298N16125 1903 57 WP MM NOT_NAMED 1903-10-24 21:00:00 NR 15.9338 124.206 main 212 174 __________P___ -1 15.9338 124.206 7 6 301
1903298N16125 1903 57 WP MM NOT_NAMED 1903-10-25 00:00:00 NR 16.0826 123.936 main 174 141 __________P___ -1 16.0826 123.936 7 6 299
1903298N16125 1903 57 WP MM NOT_NAMED 1903-10-25 03:00:00 NR 16.2431 123.619 main 141 125 __________P___ -1 16.2431 123.619 7 7 297
1903298N16125 1903 57 WP MM NOT_NAMED 1903-10-25 04:00:00 NR 16.3000 123.500 main 125 93 __________O___ -1 16.3000 123.500 3 8 296
1903298N16125 1903 57 WP MM NOT_NAMED 1903-10-25 06:00:00 NR 16.4194 123.240 main 93 46 __________P___ -1 16.4194 123.240 3 9 295
1903298N16125 1903 57 WP MM NOT_NAMED 1903-10-25 09:00:00 NR 16.6110 122.806 main 46 0 __________P___ -1 16.6110 122.806 3 10 295
1903298N16125 1903 57 WP MM NOT_NAMED 1903-10-25 12:00:00 NR 16.8147 122.338 main 0 0 __________P___ -1 16.8147 122.338 3 10 295
1903298N16125 1903 57 WP MM NOT_NAMED 1903-10-25 15:00:00 NR 17.0275 121.859 main 0 0 __________P___ -1 17.0275 121.859 3 10 295
1903298N16125 1903 57 WP MM NOT_NAMED 1903-10-25 16:00:00 NR 17.1000 121.700 main 0 0 __________O___ -1 17.1000 121.700 4 10 296
1903298N16125 1903 57 WP MM NOT_NAMED 1903-10-25 18:00:00 NR 17.2389 121.397 main 0 0 __________P___ -1 17.2389 121.397 4 10 296
1903298N16125 1903 57 WP MM NOT_NAMED 1903-10-25 21:00:00 NR 17.4535 120.943 main 0 0 __________P___ -1 17.4535 120.943 4 10 297
1903298N16125 1903 57 WP MM NOT_NAMED 1903-10-26 00:00:00 NR 17.6785 120.492 main 0 0 __________P___ -1 17.6785 120.492 4 10 298
1903298N16125 1903 57 WP MM NOT_NAMED 1903-10-26 03:00:00 NR 17.9170 120.046 main 46 46 __________P___ -1 17.9170 120.046 4 10 300
1903298N16125 1903 57 WP MM NOT_NAMED 1903-10-26 04:00:00 NR 18.0000 119.900 main 61 61 __________O___ -1 18.0000 119.900 4 10 300
1903298N16125 1903 57 WP MM NOT_NAMED 1903-10-26 06:00:00 NR 18.1585 119.613 main 95 95 __________P___ -1 18.1585 119.613 4 9 301
1903298N16125 1903 57 WP MM NOT_NAMED 1903-10-26 09:00:00 NR 18.4088 119.189 main 141 141 __________P___ -1 18.4088 119.189 4 10 303
1903298N16125 1903 57 WP MM NOT_NAMED 1903-10-26 12:00:00 NR 18.6825 118.768 main 191 201 __________P___ -1 18.6825 118.768 4 10 306
1903298N16125 1903 57 WP MM NOT_NAMED 1903-10-26 15:00:00 NR 18.9889 118.343 main 251 251 __________P___ -1 18.9889 118.343 4 10 308
1903298N16125 1903 57 WP MM NOT_NAMED 1903-10-26 16:00:00 NR 19.1000 118.200 main 264 264 __________O___ -1 19.1000 118.200 4 11 306
1903298N16125 1903 57 WP MM NOT_NAMED 1903-10-26 18:00:00 NR 19.3281 117.854 main 301 311 __________P___ -1 19.3281 117.854 4 12 306
1903298N16125 1903 57 WP MM NOT_NAMED 1903-10-26 21:00:00 NR 19.7014 117.328 main 367 308 __________P___ -1 19.7014 117.328 4 12 310
1903298N16125 1903 57 WP MM NOT_NAMED 1903-10-27 00:00:00 NR 20.1088 116.849 main 308 256 __________P___ -1 20.1088 116.849 4 12 317
1903298N16125 1903 57 WP MM NOT_NAMED 1903-10-27 03:00:00 NR 20.5474 116.485 main 256 232 __________P___ -1 20.5474 116.485 4 11 325
1903298N16125 1903 57 WP MM NOT_NAMED 1903-10-27 04:00:00 NR 20.7000 116.400 main 232 186 __________O___ -1 20.7000 116.400 4 11 338
1903298N16125 1903 57 WP MM NOT_NAMED 1903-10-27 06:00:00 NR 21.0671 116.260 main 186 129 __________P___ -1 21.0671 116.260 4 12 348
1903298N16125 1903 57 WP MM NOT_NAMED 1903-10-27 09:00:00 NR 21.6448 116.176 main 129 67 __________P___ -1 21.6448 116.176 4 11 359
1903298N16125 1903 57 WP MM NOT_NAMED 1903-10-27 12:00:00 NR 22.1833 116.249 main 67 33 __________P___ -1 22.1833 116.249 4 10 17
1903298N16125 1903 57 WP MM NOT_NAMED 1903-10-27 15:00:00 NR 22.6014 116.484 main 33 22 __________P___ -1 22.6014 116.484 4 9 32
1903298N16125 1903 57 WP MM NOT_NAMED 1903-10-27 16:00:00 NR 22.7000 116.600 main 24 23 __________O___ -1 22.7000 116.600 2 9 59
1903298N16125 1903 57 WP MM NOT_NAMED 1903-10-27 18:00:00 NR 22.8245 116.886 main 42 42 __________P___ -1 22.8245 116.886 2 9 78
1903298N16125 1903 57 WP MM NOT_NAMED 1903-10-27 21:00:00 NR 22.8564 117.429 main 73 78 __________P___ -1 22.8564 117.429 2 11 94
1903298N16125 1903 57 WP MM NOT_NAMED 1903-10-28 00:00:00 NR 22.7524 118.069 main 112 122 __________P___ -1 22.7524 118.069 2 13 103
1903298N16125 1903 57 WP MM NOT_NAMED 1903-10-28 03:00:00 NR 22.5689 118.764 main 144 127 __________P___ -1 22.5689 118.764 2 13 106
1903298N16125 1903 57 WP MM NOT_NAMED 1903-10-28 04:00:00 NR 22.5000 119.000 main 127 __________O___ -1 22.5000 119.000 7 14 108

デジタル台風データ・検索

IBTrACS Databaseについて

本データベースは、米国NOAAが公開する1842年以降の世界の熱帯低気圧のベストトラックデータアーカイブInternational Best Track Archive for Climate Stewardship (IBTrACS)を、ウェブで閲覧しやすい形式に変換したものです。

最終更新日:2021-12-03